CLVO2: Canadian River, Calvin, OKla

Data processed at Tue May 21 2019 21:50


All information presented herein is the property of the government of the United States of America and may be revised or deleted at any time without prior notice.
Dissemination of this information without the expressed written consent of the Public Affairs Office, Tulsa District U.S. Army Corps of Engineers is strictly prohibited.
These data are gathered electronically and, as presented, have not undergone any form of quality control. These data are not guaranteed to be valid or correct.
Go to home page.
Go to station list.
Go to home page.

Upstream stations:

Downstream station:
Previous Day
Next Day
Current Day
    
SHEF ID:       CLVO2     Canadian River at Calvin, OK
STATION TYPE:  
Regulating: Stage =    17.00, Flow =    44266

               PRECIP     STAGE  STAGE(2)  RIV-FLOW  BAT-LOAD
                   in        ft        ft       cfs      volt
              Ccp-Rev   Ccp-Rev   Ccp-Rev   Ccp-Rev   Ccp-Rev
(US/Central)
05/21 00:00      0.00      8.54      ----      2687     12.89
05/21 01:00      0.00      8.54      ----      2687     12.81
05/21 02:00      0.00      8.53      ----      2674     12.81
05/21 03:00      0.00      8.51      ----      2646     12.81
05/21 04:00      0.00      8.49      ----      2619     12.81
05/21 05:00      0.00      8.48      ----      2606     12.81
05/21 06:00      0.00      8.45      ----      2566     12.81
05/21 07:00      0.00      8.43      ----      2539     12.81
05/21 08:00      0.93      8.54      ----      2687     12.81
05/21 09:00      0.00      8.68      ----      2885     12.81
05/21 10:00      0.01      8.95      ----      3296     12.89
05/21 11:00      0.00      9.66      ----      4577     12.89
05/21 12:00      0.00     10.25      ----      5887     13.13
05/21 13:00      0.00     10.77      ----      7251     13.05
05/21 14:00      0.00     11.00      ----      7921      ----
05/21 15:00      0.00     10.93      ----      7712     14.24
05/21 16:00      0.00     10.71      ----      7083     13.29
05/21 17:00      0.00     10.63      ----      6863     13.21
05/21 18:00      0.00     10.54      ----      6622     13.21
05/21 19:00      0.00     10.44      ----      6362     13.13
05/21 20:00      0.00     10.40      ----      6260     13.05
05/21 21:00      0.00     10.37      ----      6184     12.97
05/21 22:00      ----      ----      ----      ----      ----
05/21 23:00      ----      ----      ----      ----      ----